Aloha, Oregon
Current Conditions -  °F | °C
As of 1:53 PM on Monday 20 Oct 2014 (Local Time) from KHIO Reporting Station
Broken Clouds Broken Clouds  
Wind Chill: 62°   Ceiling: 2000
Heat Index: 62°   Visibility: 10mi
Dew Point: 55°   Wind: 10mph
Humidity: 78%   Direction: 160°SSE
Pressure: 29.78"   Gusts: NA
Location:  45.49°N, 122.86°W
Report Text: KHIO 202053Z 16009KT 10SM FEW019 BKN020 17/13 A2978 RMK AO2 RAB10E28 SLP082 P0000 60001 T01670128 58002
Loading
Personal Weather Stations






























Interactive Weather Map New forecast layout! Learn more

10-Day Weather Forecast

Advertisements
Track Severe Weather on mobile